| Date | Time | Temp. (oF) | Dew Point (oF) | Rel. Hum. (%) | Press. (in.) | Wind Dir. | Wind Speed (mph) | Hourly Rainfall (in.) |
|
|---|---|---|---|---|---|---|---|---|---|
| 1 | 11/23 | 00:00 | 18 | 1 | 48 | 30.61 | N | 3 | 0.00 |
| 2 | 11/22 | 23:00 | 18 | 1 | 47 | 30.60 | NNW | 5 | 0.00 |
| 3 | 11/22 | 22:00 | 19 | 1 | 46 | 30.59 | NW | 6 | 0.00 |
| 4 | 11/22 | 21:00 | 20 | 1 | 43 | 30.58 | NNE | 3 | 0.00 |
| 5 | 11/22 | 20:00 | 20 | 0 | 42 | 30.56 | WNW | 2 | 0.00 |
| 6 | 11/22 | 19:00 | 21 | 0 | 38 | 30.54 | NNW | 2 | 0.00 |
| 7 | 11/22 | 18:00 | 21 | 0 | 39 | 30.52 | NW | 4 | 0.00 |
| 8 | 11/22 | 17:00 | 22 | 0 | 37 | 30.50 | NW | 7 | 0.00 |
| 9 | 11/22 | 16:00 | 23 | 0 | 36 | 30.47 | WNW | 4 | 0.00 |
| 10 | 11/22 | 15:00 | 24 | 0 | 36 | 30.46 | WNW | 13 | 0.00 |
| 11 | 11/22 | 14:00 | 25 | 1 | 36 | 30.45 | NW | 13 | 0.00 |
| 12 | 11/22 | 13:00 | 24 | 0 | 36 | 30.47 | NW | 6 | 0.00 |
| 13 | 11/22 | 12:00 | 23 | 0 | 37 | 30.50 | N | 13 | 0.00 |
| 14 | 11/22 | 11:00 | 22 | 3 | 44 | 30.52 | W | 10 | 0.00 |
| 15 | 11/22 | 10:00 | 21 | 2 | 44 | 30.53 | NNW | 7 | 0.00 |
| 16 | 11/22 | 09:00 | 19 | 2 | 48 | 30.51 | WNW | 7 | 0.00 |
| 17 | 11/22 | 08:00 | 18 | 2 | 51 | 30.49 | NNW | 12 | 0.00 |
| 18 | 11/22 | 07:00 | 18 | 4 | 55 | 30.45 | NW | 5 | 0.00 |
| 19 | 11/22 | 06:00 | 19 | 2 | 49 | 30.41 | NNW | 13 | 0.00 |
| 20 | 11/22 | 05:00 | 21 | 4 | 49 | 30.38 | NNW | 13 | 0.00 |
| 21 | 11/22 | 04:00 | 22 | 7 | 53 | 30.34 | NNW | 8 | 0.00 |
| 22 | 11/22 | 03:00 | 25 | 11 | 55 | 30.32 | NNW | 8 | 0.00 |
| 23 | 11/22 | 02:00 | 26 | 11 | 54 | 30.29 | NNW | 7 | 0.00 |
| 24 | 11/22 | 01:00 | 27 | 11 | 52 | 30.29 | WNW | 19 | 0.00 |